sensor_id;sensor_type;location;lat;lon;timestamp;P1;durP1;ratioP1;P2;durP2;ratioP2
75542;SDS011;64129;53.508;10.476;2022-10-22T00:02:25;17.52;;;11.65;;
75542;SDS011;64129;53.508;10.476;2022-10-22T00:04:51;19.10;;;12.63;;
75542;SDS011;64129;53.508;10.476;2022-10-22T00:07:18;22.83;;;11.93;;
75542;SDS011;64129;53.508;10.476;2022-10-22T00:09:44;23.02;;;13.15;;
75542;SDS011;64129;53.508;10.476;2022-10-22T00:12:10;25.05;;;13.85;;
75542;SDS011;64129;53.508;10.476;2022-10-22T00:14:37;19.83;;;12.27;;
75542;SDS011;64129;53.508;10.476;2022-10-22T00:17:02;22.65;;;12.80;;
75542;SDS011;64129;53.508;10.476;2022-10-22T00:19:28;22.25;;;12.88;;
75542;SDS011;64129;53.508;10.476;2022-10-22T00:21:54;19.00;;;11.95;;
75542;SDS011;64129;53.508;10.476;2022-10-22T00:24:19;21.65;;;11.77;;
75542;SDS011;64129;53.508;10.476;2022-10-22T00:26:45;20.30;;;11.77;;
75542;SDS011;64129;53.508;10.476;2022-10-22T00:29:10;18.38;;;10.95;;
75542;SDS011;64129;53.508;10.476;2022-10-22T00:31:36;22.48;;;11.57;;
75542;SDS011;64129;53.508;10.476;2022-10-22T00:34:01;19.95;;;12.43;;
75542;SDS011;64129;53.508;10.476;2022-10-22T00:36:27;21.92;;;12.00;;
75542;SDS011;64129;53.508;10.476;2022-10-22T00:38:52;17.98;;;11.15;;
75542;SDS011;64129;53.508;10.476;2022-10-22T00:41:18;16.63;;;10.68;;
75542;SDS011;64129;53.508;10.476;2022-10-22T00:43:53;21.05;;;11.75;;
75542;SDS011;64129;53.508;10.476;2022-10-22T00:46:19;19.70;;;11.35;;
75542;SDS011;64129;53.508;10.476;2022-10-22T00:48:44;20.15;;;12.25;;
75542;SDS011;64129;53.508;10.476;2022-10-22T00:51:09;19.05;;;12.55;;
75542;SDS011;64129;53.508;10.476;2022-10-22T00:53:36;22.50;;;12.32;;
75542;SDS011;64129;53.508;10.476;2022-10-22T00:56:03;22.48;;;12.35;;
75542;SDS011;64129;53.508;10.476;2022-10-22T00:58:30;22.25;;;11.98;;
75542;SDS011;64129;53.508;10.476;2022-10-22T01:00:58;22.90;;;13.50;;
75542;SDS011;64129;53.508;10.476;2022-10-22T01:03:24;15.60;;;9.52;;
75542;SDS011;64129;53.508;10.476;2022-10-22T01:08:23;19.73;;;10.52;;
75542;SDS011;64129;53.508;10.476;2022-10-22T01:10:55;19.85;;;10.90;;
75542;SDS011;64129;53.508;10.476;2022-10-22T01:13:35;24.63;;;12.88;;
75542;SDS011;64129;53.508;10.476;2022-10-22T01:16:10;21.05;;;12.00;;
75542;SDS011;64129;53.508;10.476;2022-10-22T01:21:41;16.90;;;10.73;;
75542;SDS011;64129;53.508;10.476;2022-10-22T01:27:12;18.77;;;11.68;;
75542;SDS011;64129;53.508;10.476;2022-10-22T01:29:51;20.30;;;12.10;;
75542;SDS011;64129;53.508;10.476;2022-10-22T01:32:21;22.98;;;11.55;;
75542;SDS011;64129;53.508;10.476;2022-10-22T01:34:57;23.17;;;11.07;;
75542;SDS011;64129;53.508;10.476;2022-10-22T01:37:27;17.33;;;11.10;;
75542;SDS011;64129;53.508;10.476;2022-10-22T01:39:56;18.10;;;10.57;;
75542;SDS011;64129;53.508;10.476;2022-10-22T01:42:24;22.02;;;11.70;;
75542;SDS011;64129;53.508;10.476;2022-10-22T01:44:49;17.17;;;10.63;;
75542;SDS011;64129;53.508;10.476;2022-10-22T02:01:14;22.48;;;12.68;;
75542;SDS011;64129;53.508;10.476;2022-10-22T02:03:47;25.17;;;13.25;;
75542;SDS011;64129;53.508;10.476;2022-10-22T02:06:20;24.15;;;12.38;;
75542;SDS011;64129;53.508;10.476;2022-10-22T02:08:47;21.65;;;12.40;;
75542;SDS011;64129;53.508;10.476;2022-10-22T02:11:14;25.33;;;14.70;;
75542;SDS011;64129;53.508;10.476;2022-10-22T02:13:44;19.52;;;12.63;;
75542;SDS011;64129;53.508;10.476;2022-10-22T02:16:14;21.30;;;11.20;;
75542;SDS011;64129;53.508;10.476;2022-10-22T02:18:43;21.00;;;12.75;;
75542;SDS011;64129;53.508;10.476;2022-10-22T02:21:10;20.13;;;12.25;;
75542;SDS011;64129;53.508;10.476;2022-10-22T02:23:36;21.17;;;12.48;;
75542;SDS011;64129;53.508;10.476;2022-10-22T02:26:10;20.65;;;12.52;;
75542;SDS011;64129;53.508;10.476;2022-10-22T02:28:51;20.42;;;12.70;;
75542;SDS011;64129;53.508;10.476;2022-10-22T02:31:27;20.67;;;11.68;;
75542;SDS011;64129;53.508;10.476;2022-10-22T02:33:56;21.15;;;12.23;;
75542;SDS011;64129;53.508;10.476;2022-10-22T02:36:24;16.00;;;9.40;;
75542;SDS011;64129;53.508;10.476;2022-10-22T02:38:50;20.52;;;11.98;;
75542;SDS011;64129;53.508;10.476;2022-10-22T02:41:16;24.48;;;11.23;;
75542;SDS011;64129;53.508;10.476;2022-10-22T02:43:44;18.88;;;10.80;;
75542;SDS011;64129;53.508;10.476;2022-10-22T02:46:13;13.57;;;8.90;;
75542;SDS011;64129;53.508;10.476;2022-10-22T02:48:39;22.52;;;11.82;;
75542;SDS011;64129;53.508;10.476;2022-10-22T02:51:04;15.43;;;10.75;;
75542;SDS011;64129;53.508;10.476;2022-10-22T02:53:30;20.67;;;11.27;;
75542;SDS011;64129;53.508;10.476;2022-10-22T02:55:55;17.25;;;10.68;;
75542;SDS011;64129;53.508;10.476;2022-10-22T02:58:20;16.83;;;10.57;;
75542;SDS011;64129;53.508;10.476;2022-10-22T03:00:47;16.27;;;10.25;;
75542;SDS011;64129;53.508;10.476;2022-10-22T03:03:12;14.93;;;10.80;;
75542;SDS011;64129;53.508;10.476;2022-10-22T03:05:38;16.50;;;10.00;;
75542;SDS011;64129;53.508;10.476;2022-10-22T03:08:03;17.15;;;10.35;;
75542;SDS011;64129;53.508;10.476;2022-10-22T03:10:28;17.48;;;10.55;;
75542;SDS011;64129;53.508;10.476;2022-10-22T03:12:54;16.63;;;10.63;;
75542;SDS011;64129;53.508;10.476;2022-10-22T03:15:20;17.02;;;10.52;;
75542;SDS011;64129;53.508;10.476;2022-10-22T03:17:45;14.35;;;9.52;;
75542;SDS011;64129;53.508;10.476;2022-10-22T03:20:10;19.38;;;11.57;;
75542;SDS011;64129;53.508;10.476;2022-10-22T03:22:36;14.10;;;9.30;;
75542;SDS011;64129;53.508;10.476;2022-10-22T03:25:06;20.58;;;11.25;;
75542;SDS011;64129;53.508;10.476;2022-10-22T03:27:34;13.32;;;9.25;;
75542;SDS011;64129;53.508;10.476;2022-10-22T03:30:02;12.90;;;8.77;;
75542;SDS011;64129;53.508;10.476;2022-10-22T03:32:28;14.38;;;10.20;;
75542;SDS011;64129;53.508;10.476;2022-10-22T03:34:54;14.05;;;9.25;;
75542;SDS011;64129;53.508;10.476;2022-10-22T03:37:19;15.00;;;9.40;;
75542;SDS011;64129;53.508;10.476;2022-10-22T03:39:45;15.68;;;9.30;;
75542;SDS011;64129;53.508;10.476;2022-10-22T03:42:10;19.10;;;10.63;;
75542;SDS011;64129;53.508;10.476;2022-10-22T03:44:37;15.35;;;9.10;;
75542;SDS011;64129;53.508;10.476;2022-10-22T03:47:03;14.30;;;10.00;;
75542;SDS011;64129;53.508;10.476;2022-10-22T03:49:29;15.00;;;9.10;;
75542;SDS011;64129;53.508;10.476;2022-10-22T03:51:54;14.43;;;9.73;;
75542;SDS011;64129;53.508;10.476;2022-10-22T03:54:19;13.80;;;9.88;;
75542;SDS011;64129;53.508;10.476;2022-10-22T03:56:45;18.80;;;11.05;;
75542;SDS011;64129;53.508;10.476;2022-10-22T03:59:10;15.35;;;10.10;;
75542;SDS011;64129;53.508;10.476;2022-10-22T04:01:37;15.50;;;9.40;;
75542;SDS011;64129;53.508;10.476;2022-10-22T04:04:02;22.13;;;11.88;;
75542;SDS011;64129;53.508;10.476;2022-10-22T04:06:28;21.35;;;11.27;;
75542;SDS011;64129;53.508;10.476;2022-10-22T04:08:54;22.45;;;10.60;;
75542;SDS011;64129;53.508;10.476;2022-10-22T04:11:19;22.67;;;11.70;;
75542;SDS011;64129;53.508;10.476;2022-10-22T04:13:44;14.90;;;9.43;;
75542;SDS011;64129;53.508;10.476;2022-10-22T04:16:14;16.27;;;10.23;;
75542;SDS011;64129;53.508;10.476;2022-10-22T04:18:45;17.98;;;10.57;;
75542;SDS011;64129;53.508;10.476;2022-10-22T04:21:11;21.88;;;10.32;;
75542;SDS011;64129;53.508;10.476;2022-10-22T04:23:38;17.00;;;10.05;;
75542;SDS011;64129;53.508;10.476;2022-10-22T04:26:08;27.90;;;11.73;;
75542;SDS011;64129;53.508;10.476;2022-10-22T04:28:33;29.17;;;12.82;;
75542;SDS011;64129;53.508;10.476;2022-10-22T04:30:59;37.20;;;12.20;;
75542;SDS011;64129;53.508;10.476;2022-10-22T04:33:25;27.35;;;11.70;;
75542;SDS011;64129;53.508;10.476;2022-10-22T04:35:50;23.95;;;10.80;;
75542;SDS011;64129;53.508;10.476;2022-10-22T04:38:16;39.72;;;12.93;;
75542;SDS011;64129;53.508;10.476;2022-10-22T04:40:41;26.17;;;12.52;;
75542;SDS011;64129;53.508;10.476;2022-10-22T04:43:06;24.10;;;10.88;;
75542;SDS011;64129;53.508;10.476;2022-10-22T04:45:32;32.63;;;14.30;;
75542;SDS011;64129;53.508;10.476;2022-10-22T04:47:58;77.03;;;18.70;;
75542;SDS011;64129;53.508;10.476;2022-10-22T04:50:24;28.33;;;14.00;;
75542;SDS011;64129;53.508;10.476;2022-10-22T04:52:50;31.13;;;13.95;;
75542;SDS011;64129;53.508;10.476;2022-10-22T04:55:16;32.03;;;14.25;;
75542;SDS011;64129;53.508;10.476;2022-10-22T04:57:41;35.55;;;16.30;;
75542;SDS011;64129;53.508;10.476;2022-10-22T05:00:07;37.03;;;14.73;;
75542;SDS011;64129;53.508;10.476;2022-10-22T05:02:32;41.53;;;16.05;;
75542;SDS011;64129;53.508;10.476;2022-10-22T05:04:58;71.68;;;18.88;;
75542;SDS011;64129;53.508;10.476;2022-10-22T05:07:23;48.17;;;17.55;;
75542;SDS011;64129;53.508;10.476;2022-10-22T05:09:49;59.63;;;18.73;;
75542;SDS011;64129;53.508;10.476;2022-10-22T05:12:14;37.17;;;17.95;;
75542;SDS011;64129;53.508;10.476;2022-10-22T05:14:40;49.22;;;19.10;;
75542;SDS011;64129;53.508;10.476;2022-10-22T05:17:05;55.67;;;18.85;;
75542;SDS011;64129;53.508;10.476;2022-10-22T05:19:31;55.30;;;19.73;;
75542;SDS011;64129;53.508;10.476;2022-10-22T05:21:58;32.95;;;15.35;;
75542;SDS011;64129;53.508;10.476;2022-10-22T05:24:25;45.85;;;17.75;;
75542;SDS011;64129;53.508;10.476;2022-10-22T05:26:52;38.85;;;16.05;;
75542;SDS011;64129;53.508;10.476;2022-10-22T05:29:19;62.10;;;18.75;;
75542;SDS011;64129;53.508;10.476;2022-10-22T05:31:44;35.33;;;14.82;;
75542;SDS011;64129;53.508;10.476;2022-10-22T05:34:10;34.00;;;15.27;;
75542;SDS011;64129;53.508;10.476;2022-10-22T05:36:35;59.83;;;18.33;;
75542;SDS011;64129;53.508;10.476;2022-10-22T05:39:01;46.72;;;17.27;;
75542;SDS011;64129;53.508;10.476;2022-10-22T05:41:27;42.15;;;15.60;;
75542;SDS011;64129;53.508;10.476;2022-10-22T05:43:53;47.17;;;15.73;;
75542;SDS011;64129;53.508;10.476;2022-10-22T05:46:21;39.25;;;14.93;;
75542;SDS011;64129;53.508;10.476;2022-10-22T05:48:50;45.67;;;16.63;;
75542;SDS011;64129;53.508;10.476;2022-10-22T05:51:16;81.45;;;18.80;;
75542;SDS011;64129;53.508;10.476;2022-10-22T05:53:42;46.67;;;16.48;;
75542;SDS011;64129;53.508;10.476;2022-10-22T05:56:10;39.85;;;15.80;;
75542;SDS011;64129;53.508;10.476;2022-10-22T05:58:37;47.58;;;16.90;;
75542;SDS011;64129;53.508;10.476;2022-10-22T06:01:03;78.60;;;17.85;;
75542;SDS011;64129;53.508;10.476;2022-10-22T06:03:33;61.42;;;16.65;;
75542;SDS011;64129;53.508;10.476;2022-10-22T06:05:59;43.42;;;14.35;;
75542;SDS011;64129;53.508;10.476;2022-10-22T06:08:26;50.45;;;15.32;;
75542;SDS011;64129;53.508;10.476;2022-10-22T06:10:52;67.45;;;16.20;;
75542;SDS011;64129;53.508;10.476;2022-10-22T06:13:18;67.85;;;15.77;;
75542;SDS011;64129;53.508;10.476;2022-10-22T06:15:43;47.65;;;16.25;;
75542;SDS011;64129;53.508;10.476;2022-10-22T06:18:09;30.10;;;13.85;;
75542;SDS011;64129;53.508;10.476;2022-10-22T06:20:35;44.83;;;14.38;;
75542;SDS011;64129;53.508;10.476;2022-10-22T06:23:00;57.13;;;16.38;;
75542;SDS011;64129;53.508;10.476;2022-10-22T06:25:25;46.97;;;15.88;;
75542;SDS011;64129;53.508;10.476;2022-10-22T06:27:51;45.47;;;15.52;;
75542;SDS011;64129;53.508;10.476;2022-10-22T06:30:16;46.35;;;14.20;;
75542;SDS011;64129;53.508;10.476;2022-10-22T06:32:42;41.30;;;13.73;;
75542;SDS011;64129;53.508;10.476;2022-10-22T06:35:07;57.88;;;14.52;;
75542;SDS011;64129;53.508;10.476;2022-10-22T06:37:32;35.58;;;15.10;;
75542;SDS011;64129;53.508;10.476;2022-10-22T06:39:58;53.50;;;14.38;;
75542;SDS011;64129;53.508;10.476;2022-10-22T06:42:23;32.78;;;15.35;;
75542;SDS011;64129;53.508;10.476;2022-10-22T06:44:49;35.83;;;15.20;;
75542;SDS011;64129;53.508;10.476;2022-10-22T06:47:14;44.33;;;15.60;;
75542;SDS011;64129;53.508;10.476;2022-10-22T06:49:39;71.00;;;17.35;;
75542;SDS011;64129;53.508;10.476;2022-10-22T06:52:05;43.17;;;15.43;;
75542;SDS011;64129;53.508;10.476;2022-10-22T06:54:30;35.58;;;14.75;;
75542;SDS011;64129;53.508;10.476;2022-10-22T06:56:55;48.92;;;15.98;;
75542;SDS011;64129;53.508;10.476;2022-10-22T06:59:21;46.70;;;15.50;;
75542;SDS011;64129;53.508;10.476;2022-10-22T07:01:46;25.83;;;12.73;;
75542;SDS011;64129;53.508;10.476;2022-10-22T07:04:11;50.10;;;15.57;;
75542;SDS011;64129;53.508;10.476;2022-10-22T07:06:37;17.67;;;10.05;;
75542;SDS011;64129;53.508;10.476;2022-10-22T07:09:02;12.98;;;8.02;;
75542;SDS011;64129;53.508;10.476;2022-10-22T07:11:29;20.55;;;10.18;;
75542;SDS011;64129;53.508;10.476;2022-10-22T07:14:01;15.02;;;8.35;;
75542;SDS011;64129;53.508;10.476;2022-10-22T07:16:26;13.55;;;9.27;;
75542;SDS011;64129;53.508;10.476;2022-10-22T07:18:51;17.58;;;9.90;;
75542;SDS011;64129;53.508;10.476;2022-10-22T07:21:17;12.32;;;7.68;;
75542;SDS011;64129;53.508;10.476;2022-10-22T07:23:44;19.33;;;9.63;;
75542;SDS011;64129;53.508;10.476;2022-10-22T07:26:10;19.58;;;12.02;;
75542;SDS011;64129;53.508;10.476;2022-10-22T07:31:05;16.55;;;11.15;;
75542;SDS011;64129;53.508;10.476;2022-10-22T07:33:32;20.73;;;12.35;;
75542;SDS011;64129;53.508;10.476;2022-10-22T07:35:58;19.77;;;12.35;;
75542;SDS011;64129;53.508;10.476;2022-10-22T07:38:25;32.78;;;13.55;;
75542;SDS011;64129;53.508;10.476;2022-10-22T07:40:50;25.60;;;12.63;;
75542;SDS011;64129;53.508;10.476;2022-10-22T07:43:16;24.88;;;13.77;;
75542;SDS011;64129;53.508;10.476;2022-10-22T07:45:41;27.60;;;13.60;;
75542;SDS011;64129;53.508;10.476;2022-10-22T07:48:06;24.75;;;13.95;;
75542;SDS011;64129;53.508;10.476;2022-10-22T07:50:32;31.58;;;14.27;;
75542;SDS011;64129;53.508;10.476;2022-10-22T07:52:57;21.58;;;12.93;;
75542;SDS011;64129;53.508;10.476;2022-10-22T07:55:23;21.70;;;12.15;;
75542;SDS011;64129;53.508;10.476;2022-10-22T07:57:48;23.33;;;13.02;;
75542;SDS011;64129;53.508;10.476;2022-10-22T08:00:13;19.70;;;12.25;;
75542;SDS011;64129;53.508;10.476;2022-10-22T08:02:39;24.63;;;13.45;;
75542;SDS011;64129;53.508;10.476;2022-10-22T08:05:04;21.30;;;13.15;;
75542;SDS011;64129;53.508;10.476;2022-10-22T08:07:30;19.65;;;11.82;;
75542;SDS011;64129;53.508;10.476;2022-10-22T08:09:56;19.70;;;11.82;;
75542;SDS011;64129;53.508;10.476;2022-10-22T08:12:21;20.25;;;13.35;;
75542;SDS011;64129;53.508;10.476;2022-10-22T08:14:46;18.60;;;12.70;;
75542;SDS011;64129;53.508;10.476;2022-10-22T08:17:11;18.85;;;12.25;;
75542;SDS011;64129;53.508;10.476;2022-10-22T08:19:37;16.15;;;11.40;;
75542;SDS011;64129;53.508;10.476;2022-10-22T08:22:02;16.45;;;11.73;;
75542;SDS011;64129;53.508;10.476;2022-10-22T08:24:28;17.90;;;11.20;;
75542;SDS011;64129;53.508;10.476;2022-10-22T08:26:53;18.05;;;11.80;;
75542;SDS011;64129;53.508;10.476;2022-10-22T08:29:20;18.30;;;11.65;;
75542;SDS011;64129;53.508;10.476;2022-10-22T08:31:47;18.45;;;11.52;;
75542;SDS011;64129;53.508;10.476;2022-10-22T08:34:12;13.75;;;9.75;;
75542;SDS011;64129;53.508;10.476;2022-10-22T08:36:38;13.77;;;10.48;;
75542;SDS011;64129;53.508;10.476;2022-10-22T08:39:03;15.20;;;10.48;;
75542;SDS011;64129;53.508;10.476;2022-10-22T08:41:28;17.75;;;10.50;;
75542;SDS011;64129;53.508;10.476;2022-10-22T08:44:09;15.15;;;10.80;;
75542;SDS011;64129;53.508;10.476;2022-10-22T08:46:58;12.30;;;8.98;;
75542;SDS011;64129;53.508;10.476;2022-10-22T08:49:38;12.13;;;8.93;;
75542;SDS011;64129;53.508;10.476;2022-10-22T08:52:16;13.48;;;8.23;;
75542;SDS011;64129;53.508;10.476;2022-10-22T08:54:51;12.93;;;8.07;;
75542;SDS011;64129;53.508;10.476;2022-10-22T08:57:22;12.93;;;8.57;;
75542;SDS011;64129;53.508;10.476;2022-10-22T09:00:03;10.27;;;7.20;;
75542;SDS011;64129;53.508;10.476;2022-10-22T09:02:31;10.43;;;5.72;;
75542;SDS011;64129;53.508;10.476;2022-10-22T09:10:07;14.10;;;7.38;;
75542;SDS011;64129;53.508;10.476;2022-10-22T09:12:35;10.20;;;6.80;;
75542;SDS011;64129;53.508;10.476;2022-10-22T09:15:01;9.55;;;6.35;;
75542;SDS011;64129;53.508;10.476;2022-10-22T09:17:33;12.45;;;6.97;;
75542;SDS011;64129;53.508;10.476;2022-10-22T09:20:27;9.32;;;7.18;;
75542;SDS011;64129;53.508;10.476;2022-10-22T09:23:17;9.55;;;6.65;;
75542;SDS011;64129;53.508;10.476;2022-10-22T09:25:48;10.68;;;6.30;;
75542;SDS011;64129;53.508;10.476;2022-10-22T09:28:15;7.93;;;6.32;;
75542;SDS011;64129;53.508;10.476;2022-10-22T09:30:41;9.07;;;5.75;;
75542;SDS011;64129;53.508;10.476;2022-10-22T09:38:28;8.50;;;6.55;;
75542;SDS011;64129;53.508;10.476;2022-10-22T09:40:56;9.20;;;6.03;;
75542;SDS011;64129;53.508;10.476;2022-10-22T09:45:54;7.68;;;6.05;;
75542;SDS011;64129;53.508;10.476;2022-10-22T09:48:26;7.15;;;5.57;;
75542;SDS011;64129;53.508;10.476;2022-10-22T09:51:05;7.88;;;5.78;;
75542;SDS011;64129;53.508;10.476;2022-10-22T09:53:41;8.80;;;5.93;;
75542;SDS011;64129;53.508;10.476;2022-10-22T09:56:12;7.90;;;5.55;;
75542;SDS011;64129;53.508;10.476;2022-10-22T09:58:45;5.85;;;4.97;;
75542;SDS011;64129;53.508;10.476;2022-10-22T10:01:23;9.27;;;5.55;;
75542;SDS011;64129;53.508;10.476;2022-10-22T10:03:51;6.88;;;5.50;;
75542;SDS011;64129;53.508;10.476;2022-10-22T10:06:20;7.25;;;4.90;;
75542;SDS011;64129;53.508;10.476;2022-10-22T10:08:47;6.97;;;4.15;;
75542;SDS011;64129;53.508;10.476;2022-10-22T10:11:26;5.70;;;4.68;;
75542;SDS011;64129;53.508;10.476;2022-10-22T10:19:34;8.50;;;5.40;;
75542;SDS011;64129;53.508;10.476;2022-10-22T10:22:24;5.45;;;4.50;;
75542;SDS011;64129;53.508;10.476;2022-10-22T10:25:03;7.40;;;5.28;;
75542;SDS011;64129;53.508;10.476;2022-10-22T10:27:50;12.35;;;9.32;;
75542;SDS011;64129;53.508;10.476;2022-10-22T10:30:33;6.90;;;4.57;;
75542;SDS011;64129;53.508;10.476;2022-10-22T10:35:44;7.60;;;4.60;;
75542;SDS011;64129;53.508;10.476;2022-10-22T10:41:07;6.07;;;4.07;;
75542;SDS011;64129;53.508;10.476;2022-10-22T10:43:58;9.23;;;4.22;;
75542;SDS011;64129;53.508;10.476;2022-10-22T10:49:29;6.28;;;3.90;;
75542;SDS011;64129;53.508;10.476;2022-10-22T10:54:39;7.05;;;3.65;;
75542;SDS011;64129;53.508;10.476;2022-10-22T11:00:14;7.13;;;3.75;;
75542;SDS011;64129;53.508;10.476;2022-10-22T11:05:52;6.53;;;3.30;;
75542;SDS011;64129;53.508;10.476;2022-10-22T11:08:23;5.15;;;3.30;;
75542;SDS011;64129;53.508;10.476;2022-10-22T11:10:56;7.40;;;3.53;;
75542;SDS011;64129;53.508;10.476;2022-10-22T11:16:22;8.25;;;3.50;;
75542;SDS011;64129;53.508;10.476;2022-10-22T11:19:01;5.57;;;2.78;;
75542;SDS011;64129;53.508;10.476;2022-10-22T11:21:31;5.43;;;3.25;;
75542;SDS011;64129;53.508;10.476;2022-10-22T11:29:16;6.82;;;3.10;;
75542;SDS011;64129;53.508;10.476;2022-10-22T11:31:47;8.23;;;2.53;;
75542;SDS011;64129;53.508;10.476;2022-10-22T11:34:15;5.97;;;2.60;;
75542;SDS011;64129;53.508;10.476;2022-10-22T11:36:46;7.95;;;2.47;;
75542;SDS011;64129;53.508;10.476;2022-10-22T11:42:19;8.25;;;2.42;;
75542;SDS011;64129;53.508;10.476;2022-10-22T11:45:05;4.60;;;2.35;;
75542;SDS011;64129;53.508;10.476;2022-10-22T11:55:42;8.50;;;2.70;;
75542;SDS011;64129;53.508;10.476;2022-10-22T12:08:43;6.05;;;1.90;;
75542;SDS011;64129;53.508;10.476;2022-10-22T12:16:25;4.60;;;1.90;;
75542;SDS011;64129;53.508;10.476;2022-10-22T12:18:59;4.80;;;2.13;;
75542;SDS011;64129;53.508;10.476;2022-10-22T12:21:28;3.90;;;2.00;;
75542;SDS011;64129;53.508;10.476;2022-10-22T12:23:57;4.03;;;1.60;;
75542;SDS011;64129;53.508;10.476;2022-10-22T12:26:28;5.05;;;2.05;;
75542;SDS011;64129;53.508;10.476;2022-10-22T12:28:56;6.28;;;2.42;;
75542;SDS011;64129;53.508;10.476;2022-10-22T12:31:22;6.38;;;1.60;;
75542;SDS011;64129;53.508;10.476;2022-10-22T12:33:54;4.15;;;1.50;;
75542;SDS011;64129;53.508;10.476;2022-10-22T12:36:20;3.45;;;1.85;;
75542;SDS011;64129;53.508;10.476;2022-10-22T12:38:45;5.10;;;1.77;;
75542;SDS011;64129;53.508;10.476;2022-10-22T12:41:11;2.88;;;1.40;;
75542;SDS011;64129;53.508;10.476;2022-10-22T12:43:37;6.30;;;1.85;;
75542;SDS011;64129;53.508;10.476;2022-10-22T12:46:10;6.53;;;2.15;;
75542;SDS011;64129;53.508;10.476;2022-10-22T12:48:42;2.65;;;1.35;;
75542;SDS011;64129;53.508;10.476;2022-10-22T12:51:16;3.50;;;1.60;;
75542;SDS011;64129;53.508;10.476;2022-10-22T12:53:48;4.43;;;1.88;;
75542;SDS011;64129;53.508;10.476;2022-10-22T12:56:19;4.57;;;1.70;;
75542;SDS011;64129;53.508;10.476;2022-10-22T12:58:59;5.40;;;1.90;;
75542;SDS011;64129;53.508;10.476;2022-10-22T13:01:28;4.38;;;1.80;;
75542;SDS011;64129;53.508;10.476;2022-10-22T13:04:03;3.30;;;1.60;;
75542;SDS011;64129;53.508;10.476;2022-10-22T13:06:46;4.32;;;1.70;;
75542;SDS011;64129;53.508;10.476;2022-10-22T13:09:17;4.13;;;1.73;;
75542;SDS011;64129;53.508;10.476;2022-10-22T13:11:49;4.38;;;1.77;;
75542;SDS011;64129;53.508;10.476;2022-10-22T13:14:40;2.55;;;1.58;;
75542;SDS011;64129;53.508;10.476;2022-10-22T13:17:07;7.00;;;2.08;;
75542;SDS011;64129;53.508;10.476;2022-10-22T13:19:40;5.03;;;2.10;;
75542;SDS011;64129;53.508;10.476;2022-10-22T13:25:18;4.65;;;2.00;;
75542;SDS011;64129;53.508;10.476;2022-10-22T13:27:48;7.68;;;2.40;;
75542;SDS011;64129;53.508;10.476;2022-10-22T13:30:25;4.80;;;2.10;;
75542;SDS011;64129;53.508;10.476;2022-10-22T13:33:04;4.57;;;2.53;;
75542;SDS011;64129;53.508;10.476;2022-10-22T13:35:51;4.78;;;2.22;;
75542;SDS011;64129;53.508;10.476;2022-10-22T13:38:18;4.30;;;2.20;;
75542;SDS011;64129;53.508;10.476;2022-10-22T13:40:45;4.20;;;1.98;;
75542;SDS011;64129;53.508;10.476;2022-10-22T13:43:11;5.47;;;2.50;;
75542;SDS011;64129;53.508;10.476;2022-10-22T13:45:36;5.60;;;2.67;;
75542;SDS011;64129;53.508;10.476;2022-10-22T13:48:01;4.45;;;2.72;;
75542;SDS011;64129;53.508;10.476;2022-10-22T13:50:27;6.05;;;2.80;;
75542;SDS011;64129;53.508;10.476;2022-10-22T13:52:53;7.65;;;2.90;;
75542;SDS011;64129;53.508;10.476;2022-10-22T13:55:22;5.57;;;3.03;;
75542;SDS011;64129;53.508;10.476;2022-10-22T13:57:49;5.57;;;2.30;;
75542;SDS011;64129;53.508;10.476;2022-10-22T14:00:17;3.97;;;2.88;;
75542;SDS011;64129;53.508;10.476;2022-10-22T14:02:45;3.80;;;2.50;;
75542;SDS011;64129;53.508;10.476;2022-10-22T14:05:11;3.42;;;2.03;;
75542;SDS011;64129;53.508;10.476;2022-10-22T14:07:38;3.72;;;2.33;;
75542;SDS011;64129;53.508;10.476;2022-10-22T14:10:14;4.28;;;2.30;;
75542;SDS011;64129;53.508;10.476;2022-10-22T14:12:41;6.13;;;2.70;;
75542;SDS011;64129;53.508;10.476;2022-10-22T14:15:08;4.57;;;2.50;;
75542;SDS011;64129;53.508;10.476;2022-10-22T14:17:35;5.05;;;2.45;;
75542;SDS011;64129;53.508;10.476;2022-10-22T14:20:02;3.45;;;2.28;;
75542;SDS011;64129;53.508;10.476;2022-10-22T14:22:28;4.85;;;2.60;;
75542;SDS011;64129;53.508;10.476;2022-10-22T14:24:54;6.55;;;2.35;;
75542;SDS011;64129;53.508;10.476;2022-10-22T14:27:19;6.55;;;2.72;;
75542;SDS011;64129;53.508;10.476;2022-10-22T14:29:45;3.53;;;2.33;;
75542;SDS011;64129;53.508;10.476;2022-10-22T14:32:14;6.75;;;2.80;;
75542;SDS011;64129;53.508;10.476;2022-10-22T14:34:44;5.53;;;2.65;;
75542;SDS011;64129;53.508;10.476;2022-10-22T14:37:15;6.07;;;3.10;;
75542;SDS011;64129;53.508;10.476;2022-10-22T14:39:43;5.55;;;2.67;;
75542;SDS011;64129;53.508;10.476;2022-10-22T14:44:36;5.15;;;3.15;;
75542;SDS011;64129;53.508;10.476;2022-10-22T14:47:01;3.78;;;2.70;;
75542;SDS011;64129;53.508;10.476;2022-10-22T14:49:27;8.00;;;3.17;;
75542;SDS011;64129;53.508;10.476;2022-10-22T14:51:52;6.00;;;3.60;;
75542;SDS011;64129;53.508;10.476;2022-10-22T14:54:17;4.95;;;2.83;;
75542;SDS011;64129;53.508;10.476;2022-10-22T14:56:43;6.25;;;2.65;;
75542;SDS011;64129;53.508;10.476;2022-10-22T14:59:08;4.78;;;3.00;;
75542;SDS011;64129;53.508;10.476;2022-10-22T15:01:33;6.90;;;3.22;;
75542;SDS011;64129;53.508;10.476;2022-10-22T15:03:59;7.10;;;2.90;;
75542;SDS011;64129;53.508;10.476;2022-10-22T15:06:24;6.50;;;3.10;;
75542;SDS011;64129;53.508;10.476;2022-10-22T15:08:50;7.10;;;2.80;;
75542;SDS011;64129;53.508;10.476;2022-10-22T15:11:15;5.22;;;2.55;;
75542;SDS011;64129;53.508;10.476;2022-10-22T15:13:40;5.57;;;2.67;;
75542;SDS011;64129;53.508;10.476;2022-10-22T15:16:06;7.20;;;2.50;;
75542;SDS011;64129;53.508;10.476;2022-10-22T15:18:33;7.32;;;2.60;;
75542;SDS011;64129;53.508;10.476;2022-10-22T15:21:00;5.82;;;2.25;;
75542;SDS011;64129;53.508;10.476;2022-10-22T15:23:27;5.07;;;2.20;;
75542;SDS011;64129;53.508;10.476;2022-10-22T15:25:53;4.95;;;2.10;;
75542;SDS011;64129;53.508;10.476;2022-10-22T15:28:19;5.78;;;2.13;;
75542;SDS011;64129;53.508;10.476;2022-10-22T15:30:50;4.43;;;2.17;;
75542;SDS011;64129;53.508;10.476;2022-10-22T15:33:17;4.28;;;1.95;;
75542;SDS011;64129;53.508;10.476;2022-10-22T15:35:42;5.00;;;2.00;;
75542;SDS011;64129;53.508;10.476;2022-10-22T15:38:07;5.00;;;1.98;;
75542;SDS011;64129;53.508;10.476;2022-10-22T15:40:33;3.10;;;1.60;;
75542;SDS011;64129;53.508;10.476;2022-10-22T15:42:59;5.32;;;2.25;;
75542;SDS011;64129;53.508;10.476;2022-10-22T15:45:24;4.32;;;2.67;;
75542;SDS011;64129;53.508;10.476;2022-10-22T15:47:50;4.80;;;2.20;;
75542;SDS011;64129;53.508;10.476;2022-10-22T15:50:15;7.30;;;2.30;;
75542;SDS011;64129;53.508;10.476;2022-10-22T15:52:40;8.35;;;2.17;;
75542;SDS011;64129;53.508;10.476;2022-10-22T15:55:06;6.13;;;1.80;;
75542;SDS011;64129;53.508;10.476;2022-10-22T15:57:34;6.78;;;2.95;;
75542;SDS011;64129;53.508;10.476;2022-10-22T16:00:00;8.90;;;2.53;;
75542;SDS011;64129;53.508;10.476;2022-10-22T16:02:26;6.38;;;1.70;;
75542;SDS011;64129;53.508;10.476;2022-10-22T16:04:51;6.15;;;2.53;;
75542;SDS011;64129;53.508;10.476;2022-10-22T16:07:17;4.93;;;2.13;;
75542;SDS011;64129;53.508;10.476;2022-10-22T16:09:42;5.25;;;1.77;;